createdAt,value
2018-08-28T00:00:26.111Z,19.28
2018-08-28T00:02:56.842Z,19.24
2018-08-28T00:05:27.470Z,19.20
2018-08-28T00:07:58.087Z,19.25
2018-08-28T00:10:28.861Z,19.14
2018-08-28T00:12:59.470Z,19.02
2018-08-28T00:15:30.516Z,18.99
2018-08-28T00:18:01.071Z,18.95
2018-08-28T00:20:32.019Z,18.93
2018-08-28T00:23:02.783Z,18.93
2018-08-28T00:25:33.781Z,18.83
2018-08-28T00:28:04.349Z,18.75
2018-08-28T00:30:34.971Z,18.77
2018-08-28T00:33:05.729Z,18.75
2018-08-28T00:35:35.787Z,18.67
2018-08-28T00:38:07.005Z,18.59
2018-08-28T00:40:37.583Z,18.52
2018-08-28T00:43:07.511Z,18.46
2018-08-28T00:45:37.962Z,18.50
2018-08-28T00:48:08.615Z,18.44
2018-08-28T00:50:39.565Z,18.49
2018-08-28T00:56:45.490Z,18.37
2018-08-28T00:59:15.407Z,18.34
2018-08-28T01:01:45.281Z,18.22
2018-08-28T01:04:15.237Z,18.21
2018-08-28T01:06:45.175Z,18.26
2018-08-28T01:09:15.121Z,18.36
2018-08-28T01:11:45.097Z,18.28
2018-08-28T01:14:14.995Z,18.12
2018-08-28T01:16:44.887Z,18.11
2018-08-28T01:19:14.793Z,18.12
2018-08-28T01:21:44.912Z,18.16
2018-08-28T01:24:14.889Z,18.14
2018-08-28T01:26:44.829Z,18.08
2018-08-28T01:29:14.849Z,18.00
2018-08-28T01:31:44.793Z,17.97
2018-08-28T01:37:50.670Z,18.01
2018-08-28T01:40:20.650Z,18.01
2018-08-28T01:42:50.785Z,18.00
2018-08-28T01:45:20.765Z,18.01
2018-08-28T01:47:50.695Z,17.95
2018-08-28T01:53:56.324Z,18.00
2018-08-28T01:56:26.439Z,17.95
2018-08-28T01:58:56.433Z,17.91
2018-08-28T02:01:26.365Z,17.89
2018-08-28T02:03:56.424Z,17.85
2018-08-28T02:13:38.124Z,17.67
2018-08-28T02:16:08.146Z,17.68
2018-08-28T02:18:38.038Z,17.81
2018-08-28T02:21:08.088Z,17.81
2018-08-28T02:23:38.044Z,17.81
2018-08-28T02:26:08.054Z,17.78
2018-08-28T02:28:38.012Z,17.72
2018-08-28T02:31:07.973Z,17.81
2018-08-28T02:33:38.001Z,17.72
2018-08-28T02:36:08.808Z,17.78
2018-08-28T02:38:38.792Z,17.86
2018-08-28T02:41:09.025Z,17.69
2018-08-28T02:43:38.904Z,17.47
2018-08-28T02:46:08.719Z,17.67
2018-08-28T02:48:38.567Z,17.67
2018-08-28T02:51:08.654Z,17.88
2018-08-28T02:53:38.558Z,17.78
2018-08-28T02:56:08.487Z,17.74
2018-08-28T02:58:38.609Z,17.54
2018-08-28T03:01:08.500Z,17.57
2018-08-28T03:03:38.530Z,17.68
2018-08-28T03:06:08.545Z,17.78
2018-08-28T03:08:38.909Z,17.74
2018-08-28T03:11:08.857Z,17.82
2018-08-28T03:13:38.969Z,17.79
2018-08-28T03:16:09.089Z,17.81
2018-08-28T03:18:39.197Z,17.78
2018-08-28T03:21:09.288Z,17.91
2018-08-28T03:23:39.654Z,17.89
2018-08-28T03:26:10.022Z,18.06
2018-08-28T03:28:40.141Z,18.00
2018-08-28T03:31:10.022Z,18.06
2018-08-28T03:33:40.026Z,18.00
2018-08-28T03:36:09.998Z,18.00
2018-08-28T03:38:40.232Z,17.93
2018-08-28T03:41:10.435Z,18.00
2018-08-28T03:43:40.417Z,18.06
2018-08-28T03:46:10.288Z,18.00
2018-08-28T03:48:40.182Z,17.95
2018-08-28T03:51:10.578Z,17.97
2018-08-28T03:53:40.599Z,17.98
2018-08-28T03:56:10.478Z,17.95
2018-08-28T03:58:40.357Z,17.96
2018-08-28T04:01:10.742Z,17.84
2018-08-28T04:03:40.746Z,17.86
2018-08-28T04:06:11.574Z,17.74
2018-08-28T04:08:41.466Z,17.80
2018-08-28T04:11:11.308Z,17.76
2018-08-28T04:13:41.141Z,17.78
2018-08-28T04:16:11.074Z,17.70
2018-08-28T04:18:41.027Z,17.78
2018-08-28T04:21:10.885Z,17.70
2018-08-28T04:23:40.804Z,17.72
2018-08-28T04:26:10.675Z,17.71
2018-08-28T04:28:40.508Z,17.69
2018-08-28T04:34:46.603Z,17.85
2018-08-28T04:37:16.465Z,17.77
2018-08-28T04:39:46.332Z,17.69
2018-08-28T04:42:16.315Z,17.69
2018-08-28T04:44:46.271Z,17.78
2018-08-28T04:47:16.292Z,17.89
2018-08-28T04:49:46.349Z,17.79
2018-08-28T04:52:16.357Z,17.81
2018-08-28T04:54:46.881Z,17.93
2018-08-28T04:57:17.059Z,17.97
2018-08-28T04:59:47.324Z,17.93
2018-08-28T05:02:17.346Z,17.84
2018-08-28T05:04:47.400Z,17.86
2018-08-28T05:07:17.352Z,17.89
2018-08-28T05:09:47.267Z,17.86
2018-08-28T05:12:17.293Z,17.83
2018-08-28T05:14:47.200Z,17.90
2018-08-28T05:17:17.182Z,18.10
2018-08-28T05:19:47.113Z,18.11
2018-08-28T05:22:17.132Z,18.11
2018-08-28T05:24:48.064Z,18.10
2018-08-28T05:27:18.224Z,18.26
2018-08-28T05:29:48.726Z,18.27
2018-08-28T05:32:18.686Z,18.33
2018-08-28T05:34:49.346Z,18.38
2018-08-28T05:37:19.866Z,18.46
2018-08-28T05:39:50.376Z,18.48
2018-08-28T05:42:20.806Z,18.54
2018-08-28T05:44:51.300Z,18.66
2018-08-28T05:47:21.862Z,18.72
2018-08-28T05:49:52.356Z,18.88
2018-08-28T05:52:22.796Z,19.06
2018-08-28T05:54:53.292Z,19.59
2018-08-28T05:57:23.863Z,20.79
2018-08-28T05:59:54.492Z,22.01
2018-08-28T06:02:24.974Z,23.11
2018-08-28T06:04:55.416Z,24.21
2018-08-28T06:07:25.864Z,24.49
2018-08-28T06:17:08.614Z,26.12
2018-08-28T06:19:38.981Z,26.45
2018-08-28T06:22:09.696Z,26.76
2018-08-28T06:24:40.438Z,27.09
2018-08-28T06:27:11.036Z,27.29
2018-08-28T06:29:42.502Z,27.55
2018-08-28T06:32:12.896Z,27.72
2018-08-28T06:34:43.350Z,27.69
2018-08-28T06:37:13.782Z,27.70
2018-08-28T06:39:44.406Z,27.99
2018-08-28T06:42:14.833Z,27.99
2018-08-28T06:44:45.840Z,27.95
2018-08-28T06:47:16.284Z,28.19
2018-08-28T06:49:46.682Z,27.84
2018-08-28T06:52:17.022Z,26.87
2018-08-28T06:54:47.600Z,26.77
2018-08-28T06:57:18.023Z,27.06
2018-08-28T06:59:48.671Z,27.13
2018-08-28T07:02:19.073Z,26.25
2018-08-28T07:04:49.660Z,25.82
2018-08-28T07:07:20.274Z,25.50
2018-08-28T07:09:50.788Z,25.45
2018-08-28T07:12:21.217Z,25.25
2018-08-28T07:14:51.784Z,25.40
2018-08-28T07:17:22.222Z,24.83
2018-08-28T07:19:52.648Z,24.52
2018-08-28T07:22:23.066Z,24.22
2018-08-28T07:24:53.447Z,24.94
2018-08-28T07:27:24.402Z,24.32
2018-08-28T07:29:54.794Z,23.88
2018-08-28T07:32:25.197Z,23.93
2018-08-28T07:34:55.568Z,24.29
2018-08-28T07:37:25.970Z,24.24
2018-08-28T07:39:57.096Z,24.44
2018-08-28T07:42:27.461Z,24.30
2018-08-28T07:44:57.922Z,24.00
2018-08-28T07:47:28.238Z,24.02
2018-08-28T07:49:58.613Z,24.04
2018-08-28T07:56:05.842Z,23.56
2018-08-28T07:58:36.219Z,23.75
2018-08-28T08:01:07.103Z,23.65
2018-08-28T08:03:37.731Z,23.59
2018-08-28T08:06:08.487Z,23.33
2018-08-28T08:08:39.119Z,23.41
2018-08-28T08:11:09.501Z,23.04
2018-08-28T08:13:39.899Z,23.05
2018-08-28T08:16:10.732Z,22.66
2018-08-28T08:18:41.239Z,22.73
2018-08-28T08:21:11.618Z,22.22
2018-08-28T08:23:41.957Z,22.49
2018-08-28T08:26:12.331Z,22.68
2018-08-28T08:28:42.674Z,22.50
2018-08-28T08:31:13.552Z,22.65
2018-08-28T08:33:44.021Z,22.57
2018-08-28T08:36:14.385Z,22.46
2018-08-28T08:38:44.732Z,22.17
2018-08-28T08:41:15.109Z,22.27
2018-08-28T08:43:45.619Z,22.29
2018-08-28T08:46:16.681Z,22.40
2018-08-28T08:48:47.528Z,22.11
2018-08-28T08:51:17.986Z,22.07
2018-08-28T08:53:48.663Z,22.03
2018-08-28T08:56:19.025Z,22.17
2018-08-28T08:58:49.369Z,22.32
2018-08-28T09:01:20.041Z,22.36
2018-08-28T09:03:50.418Z,22.54
2018-08-28T09:06:20.809Z,22.17
2018-08-28T09:08:51.163Z,22.35
2018-08-28T09:11:22.005Z,22.67
2018-08-28T09:13:52.425Z,22.70
2018-08-28T09:16:22.929Z,22.62
2018-08-28T09:18:53.240Z,22.67
2018-08-28T09:21:23.615Z,22.70
2018-08-28T09:23:53.938Z,22.80
2018-08-28T09:26:24.293Z,22.65
2018-08-28T09:28:54.713Z,23.24
2018-08-28T09:31:25.066Z,23.23
2018-08-28T09:33:55.622Z,23.46
2018-08-28T09:36:25.983Z,23.77
2018-08-28T09:38:56.370Z,23.51
2018-08-28T09:41:26.752Z,23.64
2018-08-28T09:43:57.163Z,23.93
2018-08-28T09:46:27.696Z,24.02
2018-08-28T09:48:58.069Z,23.80
2018-08-28T09:51:28.563Z,23.71
2018-08-28T09:53:58.897Z,23.76
2018-08-28T09:56:29.269Z,24.34
2018-08-28T09:59:00.148Z,24.00
2018-08-28T10:01:36.646Z,24.35
2018-08-28T10:04:07.889Z,24.83
2018-08-28T10:06:38.360Z,24.95
2018-08-28T10:09:17.034Z,24.71
2018-08-28T10:11:47.565Z,24.59
2018-08-28T10:14:17.872Z,24.66
2018-08-28T10:20:24.443Z,25.18
2018-08-28T10:22:54.795Z,24.72
2018-08-28T10:25:25.320Z,24.58
2018-08-28T10:27:55.652Z,24.35
2018-08-28T10:30:26.127Z,24.86
2018-08-28T10:32:56.580Z,24.71
2018-08-28T10:35:26.946Z,24.64
2018-08-28T10:37:57.420Z,24.75
2018-08-28T10:40:27.990Z,25.36
2018-08-28T10:42:58.686Z,25.15
2018-08-28T10:45:29.072Z,25.00
2018-08-28T10:47:59.436Z,24.91
2018-08-28T10:50:29.811Z,24.89
2018-08-28T10:53:00.191Z,24.81
2018-08-28T10:55:30.778Z,24.75
2018-08-28T10:58:01.084Z,24.45
2018-08-28T11:00:31.464Z,25.03
2018-08-28T11:03:01.825Z,25.39
2018-08-28T11:05:32.758Z,25.36
2018-08-28T11:08:03.342Z,25.81
2018-08-28T11:10:33.698Z,25.73
2018-08-28T11:13:04.124Z,25.51
2018-08-28T11:15:34.514Z,25.58
2018-08-28T11:18:04.987Z,25.70
2018-08-28T11:20:35.509Z,25.64
2018-08-28T11:23:05.897Z,25.68
2018-08-28T11:25:36.220Z,25.61
2018-08-28T11:28:06.682Z,25.55
2018-08-28T11:30:37.040Z,25.70
2018-08-28T11:33:07.553Z,25.78
2018-08-28T11:35:37.946Z,25.87
2018-08-28T11:38:08.484Z,25.93
2018-08-28T11:40:38.976Z,25.58
2018-08-28T11:43:09.376Z,25.90
2018-08-28T11:45:39.883Z,25.54
2018-08-28T11:48:10.446Z,25.80
2018-08-28T11:50:40.792Z,25.77
2018-08-28T11:53:11.226Z,25.70
2018-08-28T11:55:41.798Z,26.00
2018-08-28T11:58:12.152Z,26.11
2018-08-28T12:00:43.356Z,26.15
2018-08-28T12:03:13.790Z,25.91
2018-08-28T12:05:44.509Z,26.04
2018-08-28T12:08:14.938Z,26.28
2018-08-28T12:10:45.389Z,26.44
2018-08-28T12:13:15.851Z,26.39
2018-08-28T12:15:46.314Z,26.60
2018-08-28T12:18:16.783Z,26.97
2018-08-28T12:20:47.226Z,27.00
2018-08-28T12:23:17.680Z,27.03
2018-08-28T12:25:48.053Z,27.01
2018-08-28T12:28:18.424Z,26.74
2018-08-28T12:30:48.839Z,26.64
2018-08-28T12:33:19.181Z,26.62
2018-08-28T12:35:49.525Z,26.77
2018-08-28T12:38:19.917Z,27.29
2018-08-28T12:40:50.237Z,27.84
2018-08-28T12:43:20.643Z,27.69
2018-08-28T12:45:51.189Z,27.91
2018-08-28T12:48:21.255Z,28.10
2018-08-28T12:50:52.639Z,27.60
2018-08-28T12:53:22.977Z,27.21
2018-08-28T12:55:53.286Z,27.26
2018-08-28T12:58:23.685Z,26.91
2018-08-28T13:00:54.099Z,26.70
2018-08-28T13:03:24.513Z,26.87
2018-08-28T13:05:55.393Z,27.20
2018-08-28T13:08:25.738Z,27.50
2018-08-28T13:10:56.356Z,27.73
2018-08-28T13:13:26.829Z,27.84
2018-08-28T13:15:56.907Z,28.15
2018-08-28T13:18:27.393Z,28.09
2018-08-28T13:20:57.581Z,27.57
2018-08-28T13:23:27.714Z,27.69
2018-08-28T13:25:58.129Z,27.78
2018-08-28T13:28:28.255Z,28.04
2018-08-28T13:30:58.817Z,27.83
2018-08-28T13:33:29.367Z,27.76
2018-08-28T13:35:59.685Z,28.13
2018-08-28T13:38:30.179Z,27.98
2018-08-28T13:41:00.729Z,28.15
2018-08-28T13:43:30.845Z,28.41
2018-08-28T13:46:00.976Z,28.32
2018-08-28T13:48:31.384Z,28.56
2018-08-28T13:51:01.449Z,28.56
2018-08-28T13:53:31.623Z,28.74
2018-08-28T13:56:01.791Z,28.83
2018-08-28T13:58:31.889Z,28.40
2018-08-28T14:01:01.965Z,28.44
2018-08-28T14:03:32.221Z,28.84
2018-08-28T14:06:02.223Z,29.05
2018-08-28T14:08:32.284Z,29.22
2018-08-28T14:11:02.339Z,28.84
2018-08-28T14:13:32.475Z,27.96
2018-08-28T14:16:02.673Z,27.58
2018-08-28T14:18:32.837Z,27.52
2018-08-28T14:21:03.221Z,27.52
2018-08-28T14:23:33.590Z,27.43
2018-08-28T14:26:04.086Z,27.40
2018-08-28T14:28:34.462Z,27.31
2018-08-28T14:31:05.042Z,27.43
2018-08-28T14:33:35.538Z,27.86
2018-08-28T14:36:05.728Z,27.80
2018-08-28T14:38:36.290Z,28.11
2018-08-28T14:41:07.205Z,28.38
2018-08-28T14:43:37.277Z,28.59
2018-08-28T14:46:08.290Z,28.70
2018-08-28T14:48:38.633Z,28.80
2018-08-28T14:51:09.060Z,28.81
2018-08-28T14:53:39.430Z,28.50
2018-08-28T14:56:09.789Z,28.42
2018-08-28T14:58:39.840Z,28.61
2018-08-28T15:01:09.922Z,28.11
2018-08-28T15:03:40.364Z,27.71
2018-08-28T15:06:10.720Z,27.77
2018-08-28T15:08:41.160Z,27.84
2018-08-28T15:11:11.994Z,27.70
2018-08-28T15:13:42.593Z,27.89
2018-08-28T15:16:13.055Z,27.98
2018-08-28T15:18:43.731Z,28.23
2018-08-28T15:21:14.073Z,28.28
2018-08-28T15:23:44.582Z,28.38
2018-08-28T15:26:14.958Z,27.95
2018-08-28T15:28:45.850Z,27.75
2018-08-28T15:31:16.261Z,28.02
2018-08-28T15:33:46.651Z,28.26
2018-08-28T15:36:17.065Z,28.30
2018-08-28T15:38:47.515Z,28.42
2018-08-28T15:41:17.895Z,28.25
2018-08-28T15:43:48.050Z,28.12
2018-08-28T15:46:18.853Z,28.12
2018-08-28T15:48:49.286Z,28.23
2018-08-28T15:51:19.781Z,28.39
2018-08-28T15:53:50.305Z,28.45
2018-08-28T15:56:20.687Z,28.32
2018-08-28T15:58:51.446Z,28.25
2018-08-28T16:01:21.923Z,28.25
2018-08-28T16:03:52.312Z,28.06
2018-08-28T16:06:22.563Z,27.71
2018-08-28T16:08:52.700Z,27.38
2018-08-28T16:11:23.278Z,27.47
2018-08-28T16:13:53.356Z,27.53
2018-08-28T16:16:23.442Z,27.62
2018-08-28T16:18:53.916Z,27.43
2018-08-28T16:21:29.198Z,27.30
2018-08-28T16:23:59.776Z,27.25
2018-08-28T16:26:30.992Z,27.04
2018-08-28T16:29:01.340Z,26.97
2018-08-28T16:31:31.712Z,26.95
2018-08-28T16:34:02.227Z,26.90
2018-08-28T16:36:32.926Z,26.98
2018-08-28T16:39:03.363Z,26.82
2018-08-28T16:41:33.830Z,26.85
2018-08-28T16:44:04.294Z,26.88
2018-08-28T16:46:34.922Z,26.91
2018-08-28T16:49:05.308Z,26.97
2018-08-28T16:51:35.982Z,26.88
2018-08-28T16:54:06.403Z,26.75
2018-08-28T16:56:36.778Z,26.78
2018-08-28T16:59:07.549Z,26.69
2018-08-28T17:01:38.032Z,26.73
2018-08-28T17:04:08.514Z,26.62
2018-08-28T17:06:38.920Z,26.58
2018-08-28T17:09:09.660Z,26.46
2018-08-28T17:11:40.017Z,26.30
2018-08-28T17:14:10.402Z,26.13
2018-08-28T17:16:40.762Z,25.92
2018-08-28T17:19:11.184Z,25.81
2018-08-28T17:21:42.105Z,25.67
2018-08-28T17:24:12.518Z,25.38
2018-08-28T17:26:42.918Z,25.31
2018-08-28T17:29:13.248Z,25.21
2018-08-28T17:31:43.580Z,25.24
2018-08-28T17:34:13.939Z,25.03
2018-08-28T17:36:44.368Z,24.86
2018-08-28T17:39:14.728Z,24.74
2018-08-28T17:41:45.077Z,24.72
2018-08-28T17:44:15.450Z,24.58
2018-08-28T17:46:45.872Z,24.45
2018-08-28T17:49:16.384Z,24.45
2018-08-28T17:51:47.374Z,24.40
2018-08-28T17:54:17.745Z,24.38
2018-08-28T17:56:48.077Z,24.32
2018-08-28T17:59:18.455Z,24.24
2018-08-28T18:01:48.825Z,24.18
2018-08-28T18:04:19.205Z,24.18
2018-08-28T18:06:49.637Z,24.09
2018-08-28T18:09:19.958Z,23.98
2018-08-28T18:11:50.360Z,23.90
2018-08-28T18:14:20.730Z,23.81
2018-08-28T18:16:51.448Z,23.63
2018-08-28T18:19:21.856Z,23.58
2018-08-28T18:21:52.626Z,23.44
2018-08-28T18:24:23.006Z,23.42
2018-08-28T18:26:53.361Z,23.42
2018-08-28T18:29:23.754Z,23.39
2018-08-28T18:31:54.151Z,23.33
2018-08-28T18:34:24.895Z,23.29
2018-08-28T18:36:55.439Z,23.30
2018-08-28T18:39:25.839Z,23.28
2018-08-28T18:41:56.219Z,23.23
2018-08-28T18:44:26.957Z,23.28
2018-08-28T18:46:58.154Z,23.19
2018-08-28T18:49:28.658Z,23.28
2018-08-28T18:51:59.499Z,23.07
2018-08-28T18:54:29.881Z,22.90
2018-08-28T18:57:00.425Z,22.84
2018-08-28T18:59:30.869Z,22.70
2018-08-28T19:02:01.203Z,22.64
2018-08-28T19:04:31.543Z,22.60
2018-08-28T19:07:02.245Z,22.67
2018-08-28T19:09:32.779Z,22.54
2018-08-28T19:12:03.099Z,22.61
2018-08-28T19:14:33.609Z,22.57
2018-08-28T19:17:04.531Z,22.39
2018-08-28T19:19:35.135Z,22.38
2018-08-28T19:22:05.551Z,22.30
2018-08-28T19:24:35.957Z,22.17
2018-08-28T19:27:06.479Z,22.14
2018-08-28T19:29:37.780Z,22.03
2018-08-28T19:32:08.261Z,21.97
2018-08-28T19:34:38.990Z,21.83
2018-08-28T19:37:09.643Z,21.80
2018-08-28T19:39:40.049Z,21.79
2018-08-28T19:42:10.447Z,21.67
2018-08-28T19:44:41.109Z,21.58
2018-08-28T19:47:11.467Z,21.52
2018-08-28T19:49:41.862Z,21.51
2018-08-28T19:52:12.427Z,21.45
2018-08-28T19:54:42.891Z,21.37
2018-08-28T19:57:13.450Z,21.31
2018-08-28T19:59:45.429Z,21.09
2018-08-28T20:02:15.845Z,20.95
2018-08-28T20:04:46.229Z,20.87
2018-08-28T20:07:16.611Z,20.74
2018-08-28T20:09:47.063Z,20.68
2018-08-28T20:12:17.827Z,20.63
2018-08-28T20:14:48.250Z,20.65
2018-08-28T20:17:18.956Z,20.68
2018-08-28T20:19:49.804Z,20.66
2018-08-28T20:22:20.302Z,20.58
2018-08-28T20:24:50.653Z,20.61
2018-08-28T20:27:21.722Z,20.60
2018-08-28T20:29:52.566Z,20.64
2018-08-28T20:32:23.155Z,20.56
2018-08-28T20:34:53.637Z,20.52
2018-08-28T20:37:24.121Z,20.63
2018-08-28T20:39:54.673Z,20.67
2018-08-28T20:42:25.088Z,20.53
2018-08-28T20:44:55.504Z,20.49
2018-08-28T20:47:59.875Z,20.46
2018-08-28T20:50:30.344Z,20.39
2018-08-28T20:53:00.720Z,20.36
2018-08-28T20:55:31.296Z,20.38
2018-08-28T20:58:01.767Z,20.49
2018-08-28T21:00:35.504Z,20.41
2018-08-28T21:03:07.051Z,20.36
2018-08-28T21:05:37.476Z,20.18
2018-08-28T21:08:07.824Z,19.90
2018-08-28T21:10:38.168Z,19.83
2018-08-28T21:13:09.411Z,19.66
2018-08-28T21:15:40.274Z,19.53
2018-08-28T21:18:10.714Z,19.40
2018-08-28T21:20:41.240Z,19.44
2018-08-28T21:23:11.605Z,19.41
2018-08-28T21:25:42.088Z,19.52
2018-08-28T21:28:12.506Z,19.45
2018-08-28T21:30:42.980Z,19.38
2018-08-28T21:33:13.416Z,19.41
2018-08-28T21:35:43.967Z,19.40
2018-08-28T21:38:15.260Z,19.27
2018-08-28T21:40:45.768Z,19.18
2018-08-28T21:43:16.181Z,19.14
2018-08-28T21:45:46.542Z,19.16
2018-08-28T21:48:17.040Z,19.16
2018-08-28T21:50:47.653Z,19.17
2018-08-28T21:53:18.097Z,19.17
2018-08-28T21:55:48.448Z,19.22
2018-08-28T21:58:18.799Z,19.16
2018-08-28T22:00:54.312Z,19.15
2018-08-28T22:03:24.770Z,19.17
2018-08-28T22:05:55.243Z,19.20
2018-08-28T22:08:25.975Z,19.10
2018-08-28T22:10:56.771Z,19.04
2018-08-28T22:13:27.199Z,19.09
2018-08-28T22:16:54.334Z,19.02
2018-08-28T22:19:25.192Z,18.95
2018-08-28T22:21:55.670Z,18.93
2018-08-28T22:24:26.085Z,18.84
2018-08-28T22:26:58.621Z,18.84
2018-08-28T22:29:29.280Z,18.85
2018-08-28T22:31:59.706Z,18.84
2018-08-28T22:34:30.448Z,18.81
2018-08-28T22:37:00.870Z,18.73
2018-08-28T22:39:31.474Z,18.77
2018-08-28T22:42:01.889Z,18.79
2018-08-28T22:44:32.412Z,18.63
2018-08-28T22:47:02.800Z,18.66
2018-08-28T22:49:33.172Z,18.70
2018-08-28T22:52:03.540Z,18.67
2018-08-28T22:54:33.839Z,18.64
2018-08-28T22:57:04.358Z,18.76
2018-08-28T22:59:34.734Z,18.65
2018-08-28T23:02:05.138Z,18.71
2018-08-28T23:04:35.494Z,18.68
2018-08-28T23:07:05.974Z,18.68
2018-08-28T23:09:36.307Z,18.73
2018-08-28T23:12:06.950Z,18.76
2018-08-28T23:14:37.456Z,18.64
2018-08-28T23:17:07.831Z,18.70
2018-08-28T23:19:38.152Z,18.63
2018-08-28T23:22:08.626Z,18.59
2018-08-28T23:24:39.152Z,18.64
2018-08-28T23:27:09.556Z,18.49
2018-08-28T23:29:39.957Z,18.39
2018-08-28T23:32:09.770Z,18.38
2018-08-28T23:34:40.186Z,18.26
2018-08-28T23:40:47.121Z,18.15
2018-08-28T23:43:17.454Z,18.19
2018-08-28T23:45:47.800Z,18.19
2018-08-28T23:48:18.240Z,18.07
2018-08-28T23:50:48.771Z,17.95
2018-08-28T23:53:19.142Z,18.05
2018-08-28T23:55:49.486Z,18.17
2018-08-28T23:58:19.803Z,18.15
